Create Tblcommutelog Verified Points Advance Search
| # | Trip ID | Id Commuter | Trip Date | Trip Num | Current Lat | Current Lng | Delta Distance | Current Time | Activity | Activity Confidence | Current Speed | |
|---|---|---|---|---|---|---|---|---|---|---|---|---|
| 69221 | 260108_789002_16504316_0826 | 789002 | (not set) | (not set) | 38.898178037505 | -77.088111680742 | 5.1991 | 2026-01-08 08:50:47 | on_bicycle | 100 | 1.0728942215705 | |
| 69222 | 260108_789002_16504316_0826 | 789002 | (not set) | (not set) | 38.898189731065 | -77.08803106108 | 5.1991 | 2026-01-08 08:50:48 | on_bicycle | 100 | 1.6451044730748 | |
| 69223 | 260108_789002_16504316_0826 | 789002 | (not set) | (not set) | 38.898189731065 | -77.08803106108 | 5.1991 | 2026-01-08 08:50:48 | on_bicycle | 100 | 1.6451044730748 | |
| 69224 | 260108_786375_16514604_0805 | 786375 | (not set) | (not set) | 38.866472416188 | -77.001574149821 | 21.7203 | 2026-01-08 08:50:48 | in_vehicle | 100 | 6.2093753073395 | |
| 69225 | 260108_780809_16496249_0817 | 780809 | (not set) | (not set) | 38.935904733586 | -77.266807160309 | 8.0566 | 2026-01-08 08:50:49 | in_vehicle | 100 | 11.524672096704 | |
| 69226 | 260108_790244_16496586_0741 | 790244 | (not set) | (not set) | 39.148876606148 | -76.896892549395 | 16.2055 | 2026-01-08 08:50:49 | in_vehicle | 100 | 9.7901597718312 | |
| 69227 | 260108_765203_16506172_0717 | 765203 | (not set) | (not set) | 38.901797326405 | -77.047933530128 | 33.5203 | 2026-01-08 08:50:50 | in_vehicle | 100 | 4.7922608563484 | |
| 69228 | 260108_788899_6461772_0845 | 788899 | (not set) | (not set) | 38.87330284574 | -77.119903927627 | 0 | 2026-01-08 08:50:52 | still | 100 | -0.44703925898772 | |
| 69229 | 260108_788899_6461772_0845 | 788899 | (not set) | (not set) | 38.87330284574 | -77.119903927627 | 0 | 2026-01-08 08:50:52 | still | 100 | -0.44703925898772 | |
| 69230 | 260108_789715_16492506_0813 | 789715 | (not set) | (not set) | 38.862447978438 | -77.000937696956 | 17.9233 | 2026-01-08 08:50:53 | in_vehicle | 100 | 0.86278576984631 | |
| 69231 | 260108_765649_6452825_0838 | 765649 | (not set) | (not set) | 38.963092365338 | -77.008476723057 | 2.6068 | 2026-01-08 08:50:53 | in_vehicle | 100 | 14.591361413359 | |
| 69232 | 260108_765649_6452825_0838 | 765649 | (not set) | (not set) | 38.963092365338 | -77.008476723057 | 2.6068 | 2026-01-08 08:50:53 | in_vehicle | 100 | 14.591361413359 | |
| 69233 | 260108_765649_6452825_0838 | 765649 | (not set) | (not set) | 38.963092365338 | -77.008476723057 | 2.6068 | 2026-01-08 08:50:53 | in_vehicle | 100 | 14.591361413359 | |
| 69234 | 260108_789715_16492506_0813 | 789715 | (not set) | (not set) | 38.862447978438 | -77.000937696956 | 17.9233 | 2026-01-08 08:50:53 | in_vehicle | 100 | 0.86278576984631 | |
| 69235 | 260108_753953_16495306_0837 | 753953 | (not set) | (not set) | 38.870465904696 | -77.12544998066 | 2.188 | 2026-01-08 08:50:53 | in_vehicle | 100 | 5.936681359357 | |
| 69236 | 260108_790167_16414838_0839 | 790167 | (not set) | (not set) | 38.967826874385 | -76.91777974644 | 1.7492 | 2026-01-08 08:50:54 | in_vehicle | 100 | 5.8428031149696 | |
| 69237 | 260108_790167_16414838_0839 | 790167 | (not set) | (not set) | 38.967826874385 | -76.91777974644 | 1.7492 | 2026-01-08 08:50:54 | in_vehicle | 100 | 5.8428031149696 | |
| 69238 | 260108_753957_16478096_0826 | 753957 | (not set) | (not set) | 38.92727004785 | -77.035537707869 | 0.9551 | 2026-01-08 08:50:57 | on_foot | 100 | 0.59903260704355 | |
| 69239 | 260108_781975_16497756_0830 | 781975 | (not set) | (not set) | 38.658883002436 | -77.283374331062 | 3.9449 | 2026-01-08 08:50:57 | on_foot | 100 | 0.67949967366134 | |
| 69240 | 260108_783320_6461772_0821 | 783320 | (not set) | (not set) | 38.883997050059 | -77.101210760104 | 8.8401 | 2026-01-08 08:50:57 | in_vehicle | 100 | -0.44703925898772 |